Aeroporto :
LOGIN :

Iscrizione | Disclaimer

   EN    FR    IT 

 










Sommario :    VFR   VFR Marginale   IFR   IFR Intensivo   IFR Molto Intensivo
Visibilità : 
Base nubi : 
>= 8 km
>= 3000ft
5 / 8 km
1000 / 3000 ft
1500m / 5 km
500 / 1000 ft
800 / 1500m
200 / 500 ft
< 800m
< 200 ft
Simboli :   Temporali  Nebbia  Neve Forte  Precipitazioni Forti  Vento > 20 kt
SIGMETs :   Varie  Temporali  Ghiacco  Turbolenza  Onda orograficha  Ceneri Vulcaniche






- Altitudine del aeroporto : 1682 ft
- Codice IATA : VIT


LEVT - Vitoria Gasteiz

ULTIMO METAR :
  • 272000Z VRB01KT 9999 SCT035 BKN070 09/07 Q1010

METARs OBSOLETI :
  • 271930Z 00000KT 9999 SCT030 BKN070 09/07 Q1011
  • 271900Z 00000KT 9999 SCT030 SCT040 09/07 Q1010
  • 271830Z 06007KT 9999 SCT030 SCT040 10/08 Q1010
  • 271800Z 04005KT 9999 FEW033 SCT045 10/07 Q1010
  • 271730Z 34005KT 9999 FEW035 SCT045 10/08 Q1010

TAF TAF LEVT
Valido dal 27 a 18 ore il 28 a 18 ore UTC


271700Z 2718/2818 VRB03KT 9999 FEW045 TX14/2815Z TN02/2807Z
TEMPO 2718/2812 3000 BR
PROB40
TEMPO 2805/2811 0350 FG VV001



MetMap, La meteo Aeronautica in un colpo d'occhio ! - Copyright ORBIFLY Dicembre 2007 - Disclaimer

ORBIFLY MET'MAP TEAM :

Programmazione e sviluppo : Alexandra Zaïnal
Concezione : Baudouin d'Aumeries
Aiuto per la programmazione : Marc-Olivier Méhu
Supporto tecnico e logistico : Manuel Goepfert
Aiuto per la traduzione : Arnaldo La Scala

Contatto : metmap@orbifly.com




FONTI E CREDITI :

   NOAA